Adrian, North Dakota
Current Conditions -  °F | °C
As of 11:56 AM on Saturday 25 Oct 2014 (Local Time) from KJMS Reporting Station
Few Clouds Few Clouds  
Wind Chill: 55°   Ceiling: Unl
Heat Index: 55°   Visibility: 10mi
Dew Point: 33°   Wind: 10mph
Humidity: 43%   Direction: 300°WNW
Pressure: 30.13"   Gusts: NA
Location:  46.6526°N, 98.6214°W
Report Text: KJMS 251656Z AUTO 30009KT 10SM FEW095 13/01 A3013 RMK AO2 SLP211 T01280006
Loading
Personal Weather Stations






























Interactive Weather Map
Tropical Storm Tracking
New forecast layout! Learn more

10-Day Weather Forecast

Advertisements
Track Severe Weather on mobile